sensor_id;sensor_type;location;lat;lon;timestamp;temperature;humidity
20066;DHT22;10193;48.884;9.182;2023-02-28T00:00:29;1.20;53.30
20066;DHT22;10193;48.884;9.182;2023-02-28T00:02:57;1.20;53.30
20066;DHT22;10193;48.884;9.182;2023-02-28T00:05:26;1.10;53.30
20066;DHT22;10193;48.884;9.182;2023-02-28T00:07:53;1.10;53.40
20066;DHT22;10193;48.884;9.182;2023-02-28T00:10:25;1.10;53.40
20066;DHT22;10193;48.884;9.182;2023-02-28T00:12:53;1.10;53.50
20066;DHT22;10193;48.884;9.182;2023-02-28T00:15:22;1.10;53.50
20066;DHT22;10193;48.884;9.182;2023-02-28T00:17:49;1.10;53.60
20066;DHT22;10193;48.884;9.182;2023-02-28T00:20:15;1.10;53.50
20066;DHT22;10193;48.884;9.182;2023-02-28T00:22:45;1.10;53.60
20066;DHT22;10193;48.884;9.182;2023-02-28T00:25:14;1.10;53.70
20066;DHT22;10193;48.884;9.182;2023-02-28T00:27:42;1.00;53.60
20066;DHT22;10193;48.884;9.182;2023-02-28T00:30:11;1.00;53.70
20066;DHT22;10193;48.884;9.182;2023-02-28T00:32:38;1.00;54.30
20066;DHT22;10193;48.884;9.182;2023-02-28T00:35:06;1.00;53.80
20066;DHT22;10193;48.884;9.182;2023-02-28T00:37:34;1.00;53.80
20066;DHT22;10193;48.884;9.182;2023-02-28T00:40:03;1.00;53.90
20066;DHT22;10193;48.884;9.182;2023-02-28T00:42:32;1.00;54.00
20066;DHT22;10193;48.884;9.182;2023-02-28T00:44:58;1.00;54.00
20066;DHT22;10193;48.884;9.182;2023-02-28T00:47:25;1.00;54.00
20066;DHT22;10193;48.884;9.182;2023-02-28T00:49:52;1.00;54.10
20066;DHT22;10193;48.884;9.182;2023-02-28T00:52:19;0.90;54.10
20066;DHT22;10193;48.884;9.182;2023-02-28T00:54:45;0.90;54.00
20066;DHT22;10193;48.884;9.182;2023-02-28T00:57:13;0.90;54.10
20066;DHT22;10193;48.884;9.182;2023-02-28T00:59:40;0.90;54.20
20066;DHT22;10193;48.884;9.182;2023-02-28T01:02:07;0.90;54.30
20066;DHT22;10193;48.884;9.182;2023-02-28T01:04:33;0.90;54.40
20066;DHT22;10193;48.884;9.182;2023-02-28T01:07:00;0.90;54.40
20066;DHT22;10193;48.884;9.182;2023-02-28T01:09:27;0.90;54.40
20066;DHT22;10193;48.884;9.182;2023-02-28T01:11:54;0.90;54.50
20066;DHT22;10193;48.884;9.182;2023-02-28T01:14:22;0.90;54.60
20066;DHT22;10193;48.884;9.182;2023-02-28T01:16:49;0.90;54.60
20066;DHT22;10193;48.884;9.182;2023-02-28T01:19:16;0.80;54.50
20066;DHT22;10193;48.884;9.182;2023-02-28T01:21:43;0.90;54.70
20066;DHT22;10193;48.884;9.182;2023-02-28T01:24:10;0.90;54.70
20066;DHT22;10193;48.884;9.182;2023-02-28T01:26:36;0.90;54.70
20066;DHT22;10193;48.884;9.182;2023-02-28T01:29:03;0.90;54.80
20066;DHT22;10193;48.884;9.182;2023-02-28T01:31:31;0.80;54.70
20066;DHT22;10193;48.884;9.182;2023-02-28T01:33:58;0.80;54.70
20066;DHT22;10193;48.884;9.182;2023-02-28T01:36:25;0.80;54.80
20066;DHT22;10193;48.884;9.182;2023-02-28T01:38:52;0.80;54.90
20066;DHT22;10193;48.884;9.182;2023-02-28T01:41:21;0.80;54.80
20066;DHT22;10193;48.884;9.182;2023-02-28T01:44:01;0.80;54.90
20066;DHT22;10193;48.884;9.182;2023-02-28T01:46:35;0.80;55.00
20066;DHT22;10193;48.884;9.182;2023-02-28T01:49:07;0.80;55.00
20066;DHT22;10193;48.884;9.182;2023-02-28T01:51:39;0.80;55.00
20066;DHT22;10193;48.884;9.182;2023-02-28T01:54:14;0.80;55.10
20066;DHT22;10193;48.884;9.182;2023-02-28T01:56:44;0.80;55.20
20066;DHT22;10193;48.884;9.182;2023-02-28T01:59:16;0.80;55.20
20066;DHT22;10193;48.884;9.182;2023-02-28T02:01:46;0.80;55.20
20066;DHT22;10193;48.884;9.182;2023-02-28T02:04:13;0.70;55.10
20066;DHT22;10193;48.884;9.182;2023-02-28T02:06:43;0.70;55.20
20066;DHT22;10193;48.884;9.182;2023-02-28T02:09:11;0.70;55.30
20066;DHT22;10193;48.884;9.182;2023-02-28T02:11:39;0.70;55.90
20066;DHT22;10193;48.884;9.182;2023-02-28T02:14:24;0.70;55.40
20066;DHT22;10193;48.884;9.182;2023-02-28T02:17:06;0.70;55.40
20066;DHT22;10193;48.884;9.182;2023-02-28T02:20:09;0.70;55.40
20066;DHT22;10193;48.884;9.182;2023-02-28T02:23:02;0.70;55.50
20066;DHT22;10193;48.884;9.182;2023-02-28T02:25:34;0.70;55.50
20066;DHT22;10193;48.884;9.182;2023-02-28T02:28:36;0.70;55.60
20066;DHT22;10193;48.884;9.182;2023-02-28T02:34:40;0.70;55.70
20066;DHT22;10193;48.884;9.182;2023-02-28T02:37:23;0.70;55.70
20066;DHT22;10193;48.884;9.182;2023-02-28T02:40:00;0.70;55.80
20066;DHT22;10193;48.884;9.182;2023-02-28T02:42:35;0.70;55.80
20066;DHT22;10193;48.884;9.182;2023-02-28T02:45:07;0.70;55.80
20066;DHT22;10193;48.884;9.182;2023-02-28T02:47:35;0.70;55.90
20066;DHT22;10193;48.884;9.182;2023-02-28T02:50:07;0.70;55.90
20066;DHT22;10193;48.884;9.182;2023-02-28T02:52:38;0.70;56.00
20066;DHT22;10193;48.884;9.182;2023-02-28T02:55:09;0.70;56.10
20066;DHT22;10193;48.884;9.182;2023-02-28T02:57:40;0.70;56.10
20066;DHT22;10193;48.884;9.182;2023-02-28T03:00:10;0.70;56.10
20066;DHT22;10193;48.884;9.182;2023-02-28T03:02:38;0.70;56.10
20066;DHT22;10193;48.884;9.182;2023-02-28T03:05:14;0.70;56.20
20066;DHT22;10193;48.884;9.182;2023-02-28T03:07:44;0.70;56.30
20066;DHT22;10193;48.884;9.182;2023-02-28T03:10:32;0.70;56.30
20066;DHT22;10193;48.884;9.182;2023-02-28T03:16:00;0.70;56.50
20066;DHT22;10193;48.884;9.182;2023-02-28T03:18:36;0.70;56.50
20066;DHT22;10193;48.884;9.182;2023-02-28T03:21:14;0.80;56.60
20066;DHT22;10193;48.884;9.182;2023-02-28T03:23:50;0.80;56.70
20066;DHT22;10193;48.884;9.182;2023-02-28T03:26:23;0.80;56.70
20066;DHT22;10193;48.884;9.182;2023-02-28T03:28:58;0.80;56.70
20066;DHT22;10193;48.884;9.182;2023-02-28T03:31:31;0.80;56.70
20066;DHT22;10193;48.884;9.182;2023-02-28T03:34:03;0.90;56.90
20066;DHT22;10193;48.884;9.182;2023-02-28T03:36:35;0.90;56.90
20066;DHT22;10193;48.884;9.182;2023-02-28T03:39:13;0.90;56.90
20066;DHT22;10193;48.884;9.182;2023-02-28T03:41:42;1.00;56.90
20066;DHT22;10193;48.884;9.182;2023-02-28T03:44:16;1.00;57.00
20066;DHT22;10193;48.884;9.182;2023-02-28T03:46:48;1.00;56.90
20066;DHT22;10193;48.884;9.182;2023-02-28T03:49:18;1.00;56.90
20066;DHT22;10193;48.884;9.182;2023-02-28T03:51:50;1.00;56.90
20066;DHT22;10193;48.884;9.182;2023-02-28T03:54:19;1.00;57.00
20066;DHT22;10193;48.884;9.182;2023-02-28T03:56:51;1.10;57.10
20066;DHT22;10193;48.884;9.182;2023-02-28T03:59:22;1.00;57.00
20066;DHT22;10193;48.884;9.182;2023-02-28T04:01:51;1.10;57.00
20066;DHT22;10193;48.884;9.182;2023-02-28T04:04:18;1.10;57.00
20066;DHT22;10193;48.884;9.182;2023-02-28T04:06:45;1.10;57.00
20066;DHT22;10193;48.884;9.182;2023-02-28T04:09:15;1.10;57.00
20066;DHT22;10193;48.884;9.182;2023-02-28T04:11:43;1.10;57.10
20066;DHT22;10193;48.884;9.182;2023-02-28T04:14:11;1.10;57.10
20066;DHT22;10193;48.884;9.182;2023-02-28T04:16:40;1.20;57.20
20066;DHT22;10193;48.884;9.182;2023-02-28T04:19:09;1.20;57.20
20066;DHT22;10193;48.884;9.182;2023-02-28T04:21:37;1.20;57.20
20066;DHT22;10193;48.884;9.182;2023-02-28T04:24:05;1.20;57.20
20066;DHT22;10193;48.884;9.182;2023-02-28T04:26:35;1.20;57.20
20066;DHT22;10193;48.884;9.182;2023-02-28T04:29:04;1.20;57.30
20066;DHT22;10193;48.884;9.182;2023-02-28T04:31:30;1.20;57.20
20066;DHT22;10193;48.884;9.182;2023-02-28T04:33:57;1.20;57.20
20066;DHT22;10193;48.884;9.182;2023-02-28T04:36:24;1.20;57.20
20066;DHT22;10193;48.884;9.182;2023-02-28T04:38:51;1.20;57.20
20066;DHT22;10193;48.884;9.182;2023-02-28T04:41:19;1.30;57.30
20066;DHT22;10193;48.884;9.182;2023-02-28T04:43:47;1.30;57.30
20066;DHT22;10193;48.884;9.182;2023-02-28T04:46:13;1.30;57.30
20066;DHT22;10193;48.884;9.182;2023-02-28T04:48:41;1.30;57.30
20066;DHT22;10193;48.884;9.182;2023-02-28T04:51:11;1.30;57.30
20066;DHT22;10193;48.884;9.182;2023-02-28T04:53:39;1.30;57.30
20066;DHT22;10193;48.884;9.182;2023-02-28T04:56:08;1.30;57.40
20066;DHT22;10193;48.884;9.182;2023-02-28T04:58:36;1.30;57.40
20066;DHT22;10193;48.884;9.182;2023-02-28T05:01:06;1.30;57.40
20066;DHT22;10193;48.884;9.182;2023-02-28T05:03:38;1.30;57.40
20066;DHT22;10193;48.884;9.182;2023-02-28T05:06:06;1.30;57.30
20066;DHT22;10193;48.884;9.182;2023-02-28T05:08:32;1.30;57.40
20066;DHT22;10193;48.884;9.182;2023-02-28T05:10:59;1.30;57.40
20066;DHT22;10193;48.884;9.182;2023-02-28T05:13:27;1.40;57.50
20066;DHT22;10193;48.884;9.182;2023-02-28T05:15:54;1.30;57.50
20066;DHT22;10193;48.884;9.182;2023-02-28T05:18:22;1.40;57.50
20066;DHT22;10193;48.884;9.182;2023-02-28T05:20:48;1.30;57.50
20066;DHT22;10193;48.884;9.182;2023-02-28T05:23:15;1.30;57.50
20066;DHT22;10193;48.884;9.182;2023-02-28T05:25:43;1.30;57.50
20066;DHT22;10193;48.884;9.182;2023-02-28T05:28:10;1.30;57.50
20066;DHT22;10193;48.884;9.182;2023-02-28T05:30:36;1.40;57.60
20066;DHT22;10193;48.884;9.182;2023-02-28T05:33:03;1.40;57.60
20066;DHT22;10193;48.884;9.182;2023-02-28T05:35:31;1.30;57.60
20066;DHT22;10193;48.884;9.182;2023-02-28T05:37:58;1.40;57.60
20066;DHT22;10193;48.884;9.182;2023-02-28T05:40:24;1.40;57.70
20066;DHT22;10193;48.884;9.182;2023-02-28T05:42:51;1.40;57.70
20066;DHT22;10193;48.884;9.182;2023-02-28T05:45:18;1.40;57.70
20066;DHT22;10193;48.884;9.182;2023-02-28T05:47:44;1.40;57.70
20066;DHT22;10193;48.884;9.182;2023-02-28T05:50:11;1.40;57.70
20066;DHT22;10193;48.884;9.182;2023-02-28T05:52:39;1.40;57.70
20066;DHT22;10193;48.884;9.182;2023-02-28T05:55:06;1.40;57.70
20066;DHT22;10193;48.884;9.182;2023-02-28T05:57:33;1.40;57.70
20066;DHT22;10193;48.884;9.182;2023-02-28T06:00:00;1.40;57.70
20066;DHT22;10193;48.884;9.182;2023-02-28T06:02:27;1.40;57.70
20066;DHT22;10193;48.884;9.182;2023-02-28T06:04:53;1.40;57.70
20066;DHT22;10193;48.884;9.182;2023-02-28T06:07:20;1.40;57.80
20066;DHT22;10193;48.884;9.182;2023-02-28T06:09:49;1.50;57.80
20066;DHT22;10193;48.884;9.182;2023-02-28T06:12:15;1.50;57.80
20066;DHT22;10193;48.884;9.182;2023-02-28T06:14:43;1.50;57.80
20066;DHT22;10193;48.884;9.182;2023-02-28T06:17:10;1.50;57.80
20066;DHT22;10193;48.884;9.182;2023-02-28T06:19:36;1.50;57.80
20066;DHT22;10193;48.884;9.182;2023-02-28T06:22:05;1.50;57.80
20066;DHT22;10193;48.884;9.182;2023-02-28T06:24:31;1.50;57.90
20066;DHT22;10193;48.884;9.182;2023-02-28T06:26:59;1.50;57.90
20066;DHT22;10193;48.884;9.182;2023-02-28T06:29:30;1.50;57.80
20066;DHT22;10193;48.884;9.182;2023-02-28T06:31:57;1.50;57.90
20066;DHT22;10193;48.884;9.182;2023-02-28T06:34:23;1.50;57.80
20066;DHT22;10193;48.884;9.182;2023-02-28T06:36:51;1.60;58.00
20066;DHT22;10193;48.884;9.182;2023-02-28T06:39:18;1.60;58.00
20066;DHT22;10193;48.884;9.182;2023-02-28T06:41:45;1.60;58.10
20066;DHT22;10193;48.884;9.182;2023-02-28T06:44:16;1.60;58.00
20066;DHT22;10193;48.884;9.182;2023-02-28T06:46:44;1.60;58.10
20066;DHT22;10193;48.884;9.182;2023-02-28T06:49:11;1.70;58.10
20066;DHT22;10193;48.884;9.182;2023-02-28T06:51:40;1.70;58.10
20066;DHT22;10193;48.884;9.182;2023-02-28T06:54:07;1.70;58.90
20066;DHT22;10193;48.884;9.182;2023-02-28T06:56:34;1.80;58.30
20066;DHT22;10193;48.884;9.182;2023-02-28T06:59:01;1.80;58.30
20066;DHT22;10193;48.884;9.182;2023-02-28T07:01:30;1.80;58.30
20066;DHT22;10193;48.884;9.182;2023-02-28T07:03:57;1.80;58.20
20066;DHT22;10193;48.884;9.182;2023-02-28T07:06:25;1.80;58.20
20066;DHT22;10193;48.884;9.182;2023-02-28T07:08:53;1.90;58.20
20066;DHT22;10193;48.884;9.182;2023-02-28T07:11:20;1.90;58.20
20066;DHT22;10193;48.884;9.182;2023-02-28T07:13:47;1.90;58.20
20066;DHT22;10193;48.884;9.182;2023-02-28T07:16:14;1.90;58.10
20066;DHT22;10193;48.884;9.182;2023-02-28T07:18:42;1.90;58.20
20066;DHT22;10193;48.884;9.182;2023-02-28T07:21:10;1.90;58.20
20066;DHT22;10193;48.884;9.182;2023-02-28T07:23:38;1.90;58.00
20066;DHT22;10193;48.884;9.182;2023-02-28T07:26:05;2.00;58.10
20066;DHT22;10193;48.884;9.182;2023-02-28T07:28:32;2.00;58.20
20066;DHT22;10193;48.884;9.182;2023-02-28T07:31:03;2.00;58.00
20066;DHT22;10193;48.884;9.182;2023-02-28T07:33:30;2.00;58.00
20066;DHT22;10193;48.884;9.182;2023-02-28T07:36:01;2.00;58.00
20066;DHT22;10193;48.884;9.182;2023-02-28T07:38:28;2.00;58.10
20066;DHT22;10193;48.884;9.182;2023-02-28T07:40:55;2.00;58.20
20066;DHT22;10193;48.884;9.182;2023-02-28T07:43:21;2.00;58.10
20066;DHT22;10193;48.884;9.182;2023-02-28T07:45:48;2.00;58.10
20066;DHT22;10193;48.884;9.182;2023-02-28T07:48:15;2.10;58.20
20066;DHT22;10193;48.884;9.182;2023-02-28T07:50:42;2.10;58.10
20066;DHT22;10193;48.884;9.182;2023-02-28T07:53:10;2.10;58.20
20066;DHT22;10193;48.884;9.182;2023-02-28T07:55:37;2.10;58.10
20066;DHT22;10193;48.884;9.182;2023-02-28T07:58:03;2.10;58.20
20066;DHT22;10193;48.884;9.182;2023-02-28T08:00:30;2.10;58.10
20066;DHT22;10193;48.884;9.182;2023-02-28T08:02:58;2.10;58.10
20066;DHT22;10193;48.884;9.182;2023-02-28T08:05:24;2.10;58.00
20066;DHT22;10193;48.884;9.182;2023-02-28T08:07:51;2.20;58.20
20066;DHT22;10193;48.884;9.182;2023-02-28T08:10:20;2.20;58.10
20066;DHT22;10193;48.884;9.182;2023-02-28T08:12:46;2.20;58.20
20066;DHT22;10193;48.884;9.182;2023-02-28T08:15:13;2.20;58.30
20066;DHT22;10193;48.884;9.182;2023-02-28T08:17:39;2.30;58.40
20066;DHT22;10193;48.884;9.182;2023-02-28T08:20:07;2.30;58.30
20066;DHT22;10193;48.884;9.182;2023-02-28T08:22:35;2.30;58.30
20066;DHT22;10193;48.884;9.182;2023-02-28T08:25:02;2.30;58.20
20066;DHT22;10193;48.884;9.182;2023-02-28T08:27:30;2.30;58.40
20066;DHT22;10193;48.884;9.182;2023-02-28T08:29:57;2.40;58.40
20066;DHT22;10193;48.884;9.182;2023-02-28T08:32:24;2.40;58.40
20066;DHT22;10193;48.884;9.182;2023-02-28T08:34:50;2.40;58.40
20066;DHT22;10193;48.884;9.182;2023-02-28T08:37:17;2.40;58.30
20066;DHT22;10193;48.884;9.182;2023-02-28T08:39:44;2.50;58.40
20066;DHT22;10193;48.884;9.182;2023-02-28T08:42:11;2.50;58.40
20066;DHT22;10193;48.884;9.182;2023-02-28T08:44:39;2.50;58.40
20066;DHT22;10193;48.884;9.182;2023-02-28T08:47:06;2.60;58.40
20066;DHT22;10193;48.884;9.182;2023-02-28T08:49:32;2.60;58.40
20066;DHT22;10193;48.884;9.182;2023-02-28T08:51:59;2.60;58.30
20066;DHT22;10193;48.884;9.182;2023-02-28T08:54:26;2.60;58.40
20066;DHT22;10193;48.884;9.182;2023-02-28T08:56:56;2.70;58.50
20066;DHT22;10193;48.884;9.182;2023-02-28T08:59:22;2.70;58.50
20066;DHT22;10193;48.884;9.182;2023-02-28T09:01:50;2.80;58.50
20066;DHT22;10193;48.884;9.182;2023-02-28T09:04:17;2.80;58.40
20066;DHT22;10193;48.884;9.182;2023-02-28T09:06:44;2.80;58.20
20066;DHT22;10193;48.884;9.182;2023-02-28T09:09:10;2.80;58.40
20066;DHT22;10193;48.884;9.182;2023-02-28T09:11:37;2.90;58.70
20066;DHT22;10193;48.884;9.182;2023-02-28T09:14:04;2.90;58.60
20066;DHT22;10193;48.884;9.182;2023-02-28T09:16:32;3.00;58.80
20066;DHT22;10193;48.884;9.182;2023-02-28T09:19:00;3.10;58.90
20066;DHT22;10193;48.884;9.182;2023-02-28T09:21:27;3.10;58.80
20066;DHT22;10193;48.884;9.182;2023-02-28T09:23:54;3.20;58.80
20066;DHT22;10193;48.884;9.182;2023-02-28T09:26:23;3.30;58.60
20066;DHT22;10193;48.884;9.182;2023-02-28T09:28:50;3.30;58.80
20066;DHT22;10193;48.884;9.182;2023-02-28T09:31:20;3.40;58.80
20066;DHT22;10193;48.884;9.182;2023-02-28T09:33:47;3.50;58.70
20066;DHT22;10193;48.884;9.182;2023-02-28T09:36:15;3.50;58.50
20066;DHT22;10193;48.884;9.182;2023-02-28T09:38:42;3.50;58.40
20066;DHT22;10193;48.884;9.182;2023-02-28T09:41:13;3.60;58.50
20066;DHT22;10193;48.884;9.182;2023-02-28T09:43:43;3.60;58.50
20066;DHT22;10193;48.884;9.182;2023-02-28T09:46:18;3.70;58.50
20066;DHT22;10193;48.884;9.182;2023-02-28T09:48:48;3.70;58.50
20066;DHT22;10193;48.884;9.182;2023-02-28T09:51:27;3.80;58.40
20066;DHT22;10193;48.884;9.182;2023-02-28T09:53:54;3.80;58.20
20066;DHT22;10193;48.884;9.182;2023-02-28T09:56:24;3.90;58.50
20066;DHT22;10193;48.884;9.182;2023-02-28T09:58:54;3.90;58.20
20066;DHT22;10193;48.884;9.182;2023-02-28T10:01:27;4.00;58.40
20066;DHT22;10193;48.884;9.182;2023-02-28T10:03:57;4.00;58.20
20066;DHT22;10193;48.884;9.182;2023-02-28T10:06:29;4.00;58.30
20066;DHT22;10193;48.884;9.182;2023-02-28T10:09:02;4.10;58.30
20066;DHT22;10193;48.884;9.182;2023-02-28T10:11:32;4.10;58.20
20066;DHT22;10193;48.884;9.182;2023-02-28T10:14:01;4.20;58.50
20066;DHT22;10193;48.884;9.182;2023-02-28T10:16:33;4.30;58.70
20066;DHT22;10193;48.884;9.182;2023-02-28T10:19:04;4.40;58.90
20066;DHT22;10193;48.884;9.182;2023-02-28T10:21:35;4.40;58.70
20066;DHT22;10193;48.884;9.182;2023-02-28T10:24:10;4.50;58.60
20066;DHT22;10193;48.884;9.182;2023-02-28T10:26:41;4.60;58.70
20066;DHT22;10193;48.884;9.182;2023-02-28T10:29:09;4.70;58.40
20066;DHT22;10193;48.884;9.182;2023-02-28T10:31:36;4.80;58.50
20066;DHT22;10193;48.884;9.182;2023-02-28T10:34:04;4.80;58.50
20066;DHT22;10193;48.884;9.182;2023-02-28T10:36:32;4.90;58.50
20066;DHT22;10193;48.884;9.182;2023-02-28T10:38:59;5.00;58.40
20066;DHT22;10193;48.884;9.182;2023-02-28T10:41:28;5.10;58.60
20066;DHT22;10193;48.884;9.182;2023-02-28T10:44:14;5.20;58.60
20066;DHT22;10193;48.884;9.182;2023-02-28T10:46:41;5.20;58.10
20066;DHT22;10193;48.884;9.182;2023-02-28T10:49:14;5.30;58.40
20066;DHT22;10193;48.884;9.182;2023-02-28T10:51:42;5.30;58.40
20066;DHT22;10193;48.884;9.182;2023-02-28T10:54:16;5.40;58.20
20066;DHT22;10193;48.884;9.182;2023-02-28T10:56:44;5.50;57.90
20066;DHT22;10193;48.884;9.182;2023-02-28T10:59:29;5.50;57.90
20066;DHT22;10193;48.884;9.182;2023-02-28T11:01:56;5.50;57.40
20066;DHT22;10193;48.884;9.182;2023-02-28T11:04:33;5.60;57.90
20066;DHT22;10193;48.884;9.182;2023-02-28T11:07:05;5.60;57.70
20066;DHT22;10193;48.884;9.182;2023-02-28T11:09:34;5.70;57.80
20066;DHT22;10193;48.884;9.182;2023-02-28T11:12:02;5.70;57.50
20066;DHT22;10193;48.884;9.182;2023-02-28T11:14:32;5.70;57.20
20066;DHT22;10193;48.884;9.182;2023-02-28T11:17:11;5.70;56.70
20066;DHT22;10193;48.884;9.182;2023-02-28T11:19:39;5.70;56.70
20066;DHT22;10193;48.884;9.182;2023-02-28T11:22:17;5.60;56.80
20066;DHT22;10193;48.884;9.182;2023-02-28T11:24:48;5.60;56.50
20066;DHT22;10193;48.884;9.182;2023-02-28T11:27:26;5.60;56.70
20066;DHT22;10193;48.884;9.182;2023-02-28T11:29:53;5.60;57.30
20066;DHT22;10193;48.884;9.182;2023-02-28T11:32:22;5.60;56.90
20066;DHT22;10193;48.884;9.182;2023-02-28T11:35:01;5.60;56.80
20066;DHT22;10193;48.884;9.182;2023-02-28T11:37:32;5.70;56.80
20066;DHT22;10193;48.884;9.182;2023-02-28T11:39:59;5.70;57.30
20066;DHT22;10193;48.884;9.182;2023-02-28T11:42:35;5.80;57.30
20066;DHT22;10193;48.884;9.182;2023-02-28T11:45:18;5.90;57.60
20066;DHT22;10193;48.884;9.182;2023-02-28T11:47:53;5.90;57.40
20066;DHT22;10193;48.884;9.182;2023-02-28T11:50:38;6.00;57.60
20066;DHT22;10193;48.884;9.182;2023-02-28T11:53:17;6.20;57.60
20066;DHT22;10193;48.884;9.182;2023-02-28T11:55:50;6.30;57.70
20066;DHT22;10193;48.884;9.182;2023-02-28T11:58:29;6.40;58.20
20066;DHT22;10193;48.884;9.182;2023-02-28T12:01:14;6.50;58.00
20066;DHT22;10193;48.884;9.182;2023-02-28T12:03:53;6.70;57.50
20066;DHT22;10193;48.884;9.182;2023-02-28T12:06:24;6.80;57.50
20066;DHT22;10193;48.884;9.182;2023-02-28T12:09:09;6.90;57.50
20066;DHT22;10193;48.884;9.182;2023-02-28T12:11:48;7.00;56.90
20066;DHT22;10193;48.884;9.182;2023-02-28T12:14:46;7.00;56.80
20066;DHT22;10193;48.884;9.182;2023-02-28T12:17:22;7.10;56.00
20066;DHT22;10193;48.884;9.182;2023-02-28T12:20:02;7.10;56.10
20066;DHT22;10193;48.884;9.182;2023-02-28T12:22:32;7.10;56.00
20066;DHT22;10193;48.884;9.182;2023-02-28T12:25:36;7.10;56.00
20066;DHT22;10193;48.884;9.182;2023-02-28T12:28:08;7.00;55.00
20066;DHT22;10193;48.884;9.182;2023-02-28T12:30:38;7.00;55.70
20066;DHT22;10193;48.884;9.182;2023-02-28T12:33:09;7.00;55.60
20066;DHT22;10193;48.884;9.182;2023-02-28T12:35:46;7.00;55.30
20066;DHT22;10193;48.884;9.182;2023-02-28T12:38:16;7.00;55.10
20066;DHT22;10193;48.884;9.182;2023-02-28T12:40:49;6.90;55.10
20066;DHT22;10193;48.884;9.182;2023-02-28T12:43:18;6.90;55.10
20066;DHT22;10193;48.884;9.182;2023-02-28T12:45:48;6.90;55.40
20066;DHT22;10193;48.884;9.182;2023-02-28T12:48:21;6.90;55.10
20066;DHT22;10193;48.884;9.182;2023-02-28T12:50:50;6.90;55.40
20066;DHT22;10193;48.884;9.182;2023-02-28T12:53:23;6.90;55.30
20066;DHT22;10193;48.884;9.182;2023-02-28T12:55:59;6.90;54.90
20066;DHT22;10193;48.884;9.182;2023-02-28T12:58:33;6.90;55.00
20066;DHT22;10193;48.884;9.182;2023-02-28T13:01:31;6.90;54.50
20066;DHT22;10193;48.884;9.182;2023-02-28T13:04:16;6.90;53.90
20066;DHT22;10193;48.884;9.182;2023-02-28T13:07:00;6.90;54.40
20066;DHT22;10193;48.884;9.182;2023-02-28T13:09:33;6.90;54.30
20066;DHT22;10193;48.884;9.182;2023-02-28T13:12:01;6.90;54.60
20066;DHT22;10193;48.884;9.182;2023-02-28T13:14:29;7.00;54.90
20066;DHT22;10193;48.884;9.182;2023-02-28T13:17:00;7.00;54.70
20066;DHT22;10193;48.884;9.182;2023-02-28T13:19:30;7.00;54.50
20066;DHT22;10193;48.884;9.182;2023-02-28T13:21:59;7.00;54.50
20066;DHT22;10193;48.884;9.182;2023-02-28T13:24:45;7.00;55.00
20066;DHT22;10193;48.884;9.182;2023-02-28T13:33:25;7.10;54.40
20066;DHT22;10193;48.884;9.182;2023-02-28T13:36:24;7.20;55.00
20066;DHT22;10193;48.884;9.182;2023-02-28T13:38:52;7.20;53.20
20066;DHT22;10193;48.884;9.182;2023-02-28T13:41:42;7.30;54.50
20066;DHT22;10193;48.884;9.182;2023-02-28T13:44:11;7.30;54.30
20066;DHT22;10193;48.884;9.182;2023-02-28T13:49:38;7.30;54.10
20066;DHT22;10193;48.884;9.182;2023-02-28T13:52:12;7.40;54.60
20066;DHT22;10193;48.884;9.182;2023-02-28T13:57:44;7.40;54.20
20066;DHT22;10193;48.884;9.182;2023-02-28T14:00:23;7.50;54.30
20066;DHT22;10193;48.884;9.182;2023-02-28T14:06:08;7.50;54.00
20066;DHT22;10193;48.884;9.182;2023-02-28T14:08:36;7.50;53.50
20066;DHT22;10193;48.884;9.182;2023-02-28T14:11:06;7.60;54.20
20066;DHT22;10193;48.884;9.182;2023-02-28T14:13:39;7.60;54.10
20066;DHT22;10193;48.884;9.182;2023-02-28T14:16:13;7.60;53.80
20066;DHT22;10193;48.884;9.182;2023-02-28T14:18:43;7.60;53.80
20066;DHT22;10193;48.884;9.182;2023-02-28T14:21:21;7.60;53.60
20066;DHT22;10193;48.884;9.182;2023-02-28T14:24:19;7.60;53.60
20066;DHT22;10193;48.884;9.182;2023-02-28T14:27:07;7.60;53.60
20066;DHT22;10193;48.884;9.182;2023-02-28T14:32:47;7.70;53.60
20066;DHT22;10193;48.884;9.182;2023-02-28T14:35:45;7.70;53.90
20066;DHT22;10193;48.884;9.182;2023-02-28T14:38:18;7.70;53.10
20066;DHT22;10193;48.884;9.182;2023-02-28T14:40:47;7.70;53.70
20066;DHT22;10193;48.884;9.182;2023-02-28T14:43:21;7.70;53.80
20066;DHT22;10193;48.884;9.182;2023-02-28T14:45:50;7.80;53.70
20066;DHT22;10193;48.884;9.182;2023-02-28T14:48:19;7.80;53.80
20066;DHT22;10193;48.884;9.182;2023-02-28T14:50:49;7.80;53.80
20066;DHT22;10193;48.884;9.182;2023-02-28T14:53:18;7.80;53.80
20066;DHT22;10193;48.884;9.182;2023-02-28T14:55:47;7.80;53.70
20066;DHT22;10193;48.884;9.182;2023-02-28T14:58:23;7.80;53.60
20066;DHT22;10193;48.884;9.182;2023-02-28T15:00:52;7.80;53.20
20066;DHT22;10193;48.884;9.182;2023-02-28T15:03:23;7.80;53.60
20066;DHT22;10193;48.884;9.182;2023-02-28T15:05:54;7.80;53.40
20066;DHT22;10193;48.884;9.182;2023-02-28T15:08:22;7.80;53.40
20066;DHT22;10193;48.884;9.182;2023-02-28T15:10:54;7.80;53.50
20066;DHT22;10193;48.884;9.182;2023-02-28T15:13:22;7.80;53.40
20066;DHT22;10193;48.884;9.182;2023-02-28T15:15:52;7.80;53.20
20066;DHT22;10193;48.884;9.182;2023-02-28T15:18:29;7.80;53.20
20066;DHT22;10193;48.884;9.182;2023-02-28T15:21:00;7.80;52.90
20066;DHT22;10193;48.884;9.182;2023-02-28T15:23:29;7.70;53.20
20066;DHT22;10193;48.884;9.182;2023-02-28T15:25:56;7.70;53.00
20066;DHT22;10193;48.884;9.182;2023-02-28T15:28:23;7.70;53.20
20066;DHT22;10193;48.884;9.182;2023-02-28T15:30:52;7.70;53.20
20066;DHT22;10193;48.884;9.182;2023-02-28T15:33:22;7.70;53.20
20066;DHT22;10193;48.884;9.182;2023-02-28T15:35:51;7.70;52.50
20066;DHT22;10193;48.884;9.182;2023-02-28T15:38:22;7.70;53.00
20066;DHT22;10193;48.884;9.182;2023-02-28T15:40:51;7.70;52.80
20066;DHT22;10193;48.884;9.182;2023-02-28T15:43:26;7.70;52.80
20066;DHT22;10193;48.884;9.182;2023-02-28T15:45:57;7.60;52.80
20066;DHT22;10193;48.884;9.182;2023-02-28T15:48:27;7.70;52.80
20066;DHT22;10193;48.884;9.182;2023-02-28T15:50:57;7.60;52.90
20066;DHT22;10193;48.884;9.182;2023-02-28T15:53:30;7.60;52.80
20066;DHT22;10193;48.884;9.182;2023-02-28T15:56:01;7.60;52.80
20066;DHT22;10193;48.884;9.182;2023-02-28T15:58:28;7.50;52.80
20066;DHT22;10193;48.884;9.182;2023-02-28T16:01:07;7.50;52.70
20066;DHT22;10193;48.884;9.182;2023-02-28T16:03:40;7.50;52.50
20066;DHT22;10193;48.884;9.182;2023-02-28T16:06:36;7.50;52.70
20066;DHT22;10193;48.884;9.182;2023-02-28T16:09:05;7.40;52.40
20066;DHT22;10193;48.884;9.182;2023-02-28T16:11:34;7.40;52.70
20066;DHT22;10193;48.884;9.182;2023-02-28T16:14:01;7.40;53.40
20066;DHT22;10193;48.884;9.182;2023-02-28T16:16:28;7.30;52.90
20066;DHT22;10193;48.884;9.182;2023-02-28T16:18:55;7.30;52.90
20066;DHT22;10193;48.884;9.182;2023-02-28T16:21:22;7.30;52.70
20066;DHT22;10193;48.884;9.182;2023-02-28T16:23:51;7.20;52.60
20066;DHT22;10193;48.884;9.182;2023-02-28T16:26:21;7.20;52.50
20066;DHT22;10193;48.884;9.182;2023-02-28T16:28:48;7.20;52.70
20066;DHT22;10193;48.884;9.182;2023-02-28T16:31:15;7.20;52.90